sensor_id;sensor_type;location;lat;lon;timestamp;P1;durP1;ratioP1;P2;durP2;ratioP2
68375;SDS011;55318;52.068;5.188;2023-05-07T00:00:57;9.0;;;6.6;;
68375;SDS011;55318;52.068;5.188;2023-05-07T00:04:10;10.21;;;6.8;;
68375;SDS011;55318;52.068;5.188;2023-05-07T00:05:46;8.1;;;5.9;;
68375;SDS011;55318;52.068;5.188;2023-05-07T00:07:22;10.0;;;6.1;;
68375;SDS011;55318;52.068;5.188;2023-05-07T00:10:35;8.5;;;5.7;;
68375;SDS011;55318;52.068;5.188;2023-05-07T00:12:11;9.9;;;6.2;;
68375;SDS011;55318;52.068;5.188;2023-05-07T00:13:47;9.0;;;5.6;;
68375;SDS011;55318;52.068;5.188;2023-05-07T00:15:24;12.3;;;6.7;;
68375;SDS011;55318;52.068;5.188;2023-05-07T00:18:38;8.71;;;5.3;;
68375;SDS011;55318;52.068;5.188;2023-05-07T00:20:15;7.1;;;5.3;;
68375;SDS011;55318;52.068;5.188;2023-05-07T00:21:51;7.5;;;5.4;;
68375;SDS011;55318;52.068;5.188;2023-05-07T00:25:03;7.9;;;5.4;;
68375;SDS011;55318;52.068;5.188;2023-05-07T00:26:40;7.3;;;5.0;;
68375;SDS011;55318;52.068;5.188;2023-05-07T00:28:17;6.8;;;4.7;;
68375;SDS011;55318;52.068;5.188;2023-05-07T00:31:32;10.7;;;5.3;;
68375;SDS011;55318;52.068;5.188;2023-05-07T00:33:08;7.8;;;4.91;;
68375;SDS011;55318;52.068;5.188;2023-05-07T00:34:44;8.0;;;5.0;;
68375;SDS011;55318;52.068;5.188;2023-05-07T00:36:21;7.0;;;4.61;;
68375;SDS011;55318;52.068;5.188;2023-05-07T00:39:34;6.3;;;4.7;;
68375;SDS011;55318;52.068;5.188;2023-05-07T00:41:10;8.31;;;4.41;;
68375;SDS011;55318;52.068;5.188;2023-05-07T00:42:47;8.0;;;4.5;;
68375;SDS011;55318;52.068;5.188;2023-05-07T00:46:00;8.81;;;4.5;;
68375;SDS011;55318;52.068;5.188;2023-05-07T00:47:37;9.21;;;4.8;;
68375;SDS011;55318;52.068;5.188;2023-05-07T00:49:14;5.7;;;4.61;;
68375;SDS011;55318;52.068;5.188;2023-05-07T00:52:28;6.6;;;4.2;;
68375;SDS011;55318;52.068;5.188;2023-05-07T00:54:05;5.8;;;4.3;;
68375;SDS011;55318;52.068;5.188;2023-05-07T00:55:43;7.3;;;4.2;;
68375;SDS011;55318;52.068;5.188;2023-05-07T00:57:19;6.0;;;4.0;;
68375;SDS011;55318;52.068;5.188;2023-05-07T01:00:33;4.7;;;4.0;;
68375;SDS011;55318;52.068;5.188;2023-05-07T01:02:10;7.1;;;4.0;;
68375;SDS011;55318;52.068;5.188;2023-05-07T01:03:46;6.3;;;4.2;;
68375;SDS011;55318;52.068;5.188;2023-05-07T01:07:02;3.7;;;3.2;;
68375;SDS011;55318;52.068;5.188;2023-05-07T01:08:39;5.6;;;4.1;;
68375;SDS011;55318;52.068;5.188;2023-05-07T01:10:17;5.2;;;3.5;;
68375;SDS011;55318;52.068;5.188;2023-05-07T01:11:54;5.2;;;4.0;;
68375;SDS011;55318;52.068;5.188;2023-05-07T01:15:10;5.0;;;3.5;;
68375;SDS011;55318;52.068;5.188;2023-05-07T01:16:47;7.9;;;3.9;;
68375;SDS011;55318;52.068;5.188;2023-05-07T01:18:24;5.9;;;4.1;;
68375;SDS011;55318;52.068;5.188;2023-05-07T01:21:40;6.4;;;3.9;;
68375;SDS011;55318;52.068;5.188;2023-05-07T01:23:22;6.1;;;3.8;;
68375;SDS011;55318;52.068;5.188;2023-05-07T01:24:59;5.9;;;4.0;;
68375;SDS011;55318;52.068;5.188;2023-05-07T01:26:36;6.3;;;3.7;;
68375;SDS011;55318;52.068;5.188;2023-05-07T01:29:49;6.5;;;4.2;;
68375;SDS011;55318;52.068;5.188;2023-05-07T01:31:26;6.5;;;4.5;;
68375;SDS011;55318;52.068;5.188;2023-05-07T01:33:03;5.11;;;4.1;;
68375;SDS011;55318;52.068;5.188;2023-05-07T01:36:24;4.91;;;4.1;;
68375;SDS011;55318;52.068;5.188;2023-05-07T01:38:02;5.5;;;3.9;;
68375;SDS011;55318;52.068;5.188;2023-05-07T01:41:16;5.5;;;4.3;;
68375;SDS011;55318;52.068;5.188;2023-05-07T01:44:30;7.4;;;4.91;;
68375;SDS011;55318;52.068;5.188;2023-05-07T01:46:06;5.9;;;3.8;;
68375;SDS011;55318;52.068;5.188;2023-05-07T01:47:44;5.11;;;4.0;;
68375;SDS011;55318;52.068;5.188;2023-05-07T01:50:56;5.9;;;3.8;;
68375;SDS011;55318;52.068;5.188;2023-05-07T01:52:34;6.6;;;4.2;;
68375;SDS011;55318;52.068;5.188;2023-05-07T01:54:11;6.8;;;4.41;;
68375;SDS011;55318;52.068;5.188;2023-05-07T01:55:47;5.7;;;4.3;;
68375;SDS011;55318;52.068;5.188;2023-05-07T01:59:00;7.1;;;4.41;;
68375;SDS011;55318;52.068;5.188;2023-05-07T02:00:36;8.6;;;4.7;;
68375;SDS011;55318;52.068;5.188;2023-05-07T02:02:13;8.1;;;4.2;;
68375;SDS011;55318;52.068;5.188;2023-05-07T02:05:25;5.6;;;4.41;;
68375;SDS011;55318;52.068;5.188;2023-05-07T02:07:02;6.4;;;3.8;;
68375;SDS011;55318;52.068;5.188;2023-05-07T02:08:38;8.2;;;4.61;;
68375;SDS011;55318;52.068;5.188;2023-05-07T02:11:50;6.9;;;4.0;;
68375;SDS011;55318;52.068;5.188;2023-05-07T02:13:28;8.2;;;4.5;;
68375;SDS011;55318;52.068;5.188;2023-05-07T02:15:05;6.0;;;3.8;;
68375;SDS011;55318;52.068;5.188;2023-05-07T02:16:42;5.8;;;4.41;;
68375;SDS011;55318;52.068;5.188;2023-05-07T02:19:55;7.0;;;4.2;;
68375;SDS011;55318;52.068;5.188;2023-05-07T02:21:31;5.8;;;4.41;;
68375;SDS011;55318;52.068;5.188;2023-05-07T02:23:07;6.5;;;4.2;;
68375;SDS011;55318;52.068;5.188;2023-05-07T02:26:20;6.4;;;4.61;;
68375;SDS011;55318;52.068;5.188;2023-05-07T02:27:56;6.4;;;3.7;;
68375;SDS011;55318;52.068;5.188;2023-05-07T02:29:32;6.5;;;4.61;;
68375;SDS011;55318;52.068;5.188;2023-05-07T02:32:45;7.8;;;5.0;;
68375;SDS011;55318;52.068;5.188;2023-05-07T02:34:21;5.9;;;4.2;;
68375;SDS011;55318;52.068;5.188;2023-05-07T02:35:57;6.4;;;4.7;;
68375;SDS011;55318;52.068;5.188;2023-05-07T02:37:41;6.1;;;4.61;;
68375;SDS011;55318;52.068;5.188;2023-05-07T02:40:53;6.6;;;3.8;;
68375;SDS011;55318;52.068;5.188;2023-05-07T02:42:30;6.4;;;4.2;;
68375;SDS011;55318;52.068;5.188;2023-05-07T02:44:06;6.8;;;4.91;;
68375;SDS011;55318;52.068;5.188;2023-05-07T02:47:20;7.9;;;4.91;;
68375;SDS011;55318;52.068;5.188;2023-05-07T02:48:56;5.7;;;4.7;;
68375;SDS011;55318;52.068;5.188;2023-05-07T02:50:32;9.21;;;4.1;;
68375;SDS011;55318;52.068;5.188;2023-05-07T02:55:21;6.7;;;4.41;;
68375;SDS011;55318;52.068;5.188;2023-05-07T02:56:57;6.5;;;4.8;;
68375;SDS011;55318;52.068;5.188;2023-05-07T02:58:33;8.6;;;4.8;;
68375;SDS011;55318;52.068;5.188;2023-05-07T03:01:47;9.81;;;5.11;;
68375;SDS011;55318;52.068;5.188;2023-05-07T03:03:24;9.5;;;5.2;;
68375;SDS011;55318;52.068;5.188;2023-05-07T03:05:00;8.4;;;5.11;;
68375;SDS011;55318;52.068;5.188;2023-05-07T03:08:12;8.2;;;5.2;;
68375;SDS011;55318;52.068;5.188;2023-05-07T03:09:48;9.31;;;5.3;;
68375;SDS011;55318;52.068;5.188;2023-05-07T03:11:24;7.0;;;4.5;;
68375;SDS011;55318;52.068;5.188;2023-05-07T03:14:38;6.9;;;4.8;;
68375;SDS011;55318;52.068;5.188;2023-05-07T03:16:14;8.31;;;5.11;;
68375;SDS011;55318;52.068;5.188;2023-05-07T03:17:51;6.9;;;4.91;;
68375;SDS011;55318;52.068;5.188;2023-05-07T03:19:27;6.2;;;4.7;;
68375;SDS011;55318;52.068;5.188;2023-05-07T03:22:39;5.6;;;3.9;;
68375;SDS011;55318;52.068;5.188;2023-05-07T03:24:16;5.9;;;4.2;;
68375;SDS011;55318;52.068;5.188;2023-05-07T03:25:52;7.1;;;4.7;;
68375;SDS011;55318;52.068;5.188;2023-05-07T03:29:05;7.0;;;4.3;;
68375;SDS011;55318;52.068;5.188;2023-05-07T03:30:41;7.5;;;4.61;;
68375;SDS011;55318;52.068;5.188;2023-05-07T03:32:17;8.0;;;4.8;;
68375;SDS011;55318;52.068;5.188;2023-05-07T03:35:31;6.3;;;4.41;;
68375;SDS011;55318;52.068;5.188;2023-05-07T03:37:08;7.5;;;5.0;;
68375;SDS011;55318;52.068;5.188;2023-05-07T03:38:45;5.5;;;4.91;;
68375;SDS011;55318;52.068;5.188;2023-05-07T03:41:57;7.7;;;5.4;;
68375;SDS011;55318;52.068;5.188;2023-05-07T03:43:34;7.9;;;4.7;;
68375;SDS011;55318;52.068;5.188;2023-05-07T03:45:10;6.7;;;4.61;;
68375;SDS011;55318;52.068;5.188;2023-05-07T03:46:46;6.6;;;5.0;;
68375;SDS011;55318;52.068;5.188;2023-05-07T03:49:59;7.3;;;5.4;;
68375;SDS011;55318;52.068;5.188;2023-05-07T03:51:35;7.8;;;5.11;;
68375;SDS011;55318;52.068;5.188;2023-05-07T03:53:12;8.4;;;5.8;;
68375;SDS011;55318;52.068;5.188;2023-05-07T03:56:24;8.1;;;5.0;;
68375;SDS011;55318;52.068;5.188;2023-05-07T03:58:00;6.3;;;4.8;;
68375;SDS011;55318;52.068;5.188;2023-05-07T03:59:36;7.2;;;4.8;;
68375;SDS011;55318;52.068;5.188;2023-05-07T04:02:49;8.1;;;5.5;;
68375;SDS011;55318;52.068;5.188;2023-05-07T04:04:25;8.5;;;5.5;;
68375;SDS011;55318;52.068;5.188;2023-05-07T04:06:01;7.6;;;5.11;;
68375;SDS011;55318;52.068;5.188;2023-05-07T04:07:38;6.1;;;5.0;;
68375;SDS011;55318;52.068;5.188;2023-05-07T04:10:54;7.5;;;4.91;;
68375;SDS011;55318;52.068;5.188;2023-05-07T04:12:31;10.5;;;5.11;;
68375;SDS011;55318;52.068;5.188;2023-05-07T04:14:07;7.3;;;5.0;;
68375;SDS011;55318;52.068;5.188;2023-05-07T04:17:19;8.2;;;4.7;;
68375;SDS011;55318;52.068;5.188;2023-05-07T04:18:55;5.11;;;4.61;;
68375;SDS011;55318;52.068;5.188;2023-05-07T04:20:33;8.4;;;5.0;;
68375;SDS011;55318;52.068;5.188;2023-05-07T04:23:48;7.1;;;5.0;;
68375;SDS011;55318;52.068;5.188;2023-05-07T04:25:24;8.6;;;5.7;;
68375;SDS011;55318;52.068;5.188;2023-05-07T04:27:01;7.4;;;5.2;;
68375;SDS011;55318;52.068;5.188;2023-05-07T04:28:37;6.1;;;4.8;;
68375;SDS011;55318;52.068;5.188;2023-05-07T04:31:50;9.21;;;6.3;;
68375;SDS011;55318;52.068;5.188;2023-05-07T04:33:26;8.2;;;5.4;;
68375;SDS011;55318;52.068;5.188;2023-05-07T04:35:02;9.6;;;6.2;;
68375;SDS011;55318;52.068;5.188;2023-05-07T04:38:17;10.4;;;6.8;;
68375;SDS011;55318;52.068;5.188;2023-05-07T04:39:53;9.71;;;6.3;;
68375;SDS011;55318;52.068;5.188;2023-05-07T04:41:29;8.4;;;6.0;;
68375;SDS011;55318;52.068;5.188;2023-05-07T04:44:41;9.1;;;6.1;;
68375;SDS011;55318;52.068;5.188;2023-05-07T04:46:19;8.31;;;5.9;;
68375;SDS011;55318;52.068;5.188;2023-05-07T04:47:55;9.6;;;6.6;;
68375;SDS011;55318;52.068;5.188;2023-05-07T04:49:31;10.5;;;6.5;;
68375;SDS011;55318;52.068;5.188;2023-05-07T04:52:44;10.5;;;6.4;;
68375;SDS011;55318;52.068;5.188;2023-05-07T04:54:20;10.7;;;6.2;;
68375;SDS011;55318;52.068;5.188;2023-05-07T04:55:56;12.3;;;6.2;;
68375;SDS011;55318;52.068;5.188;2023-05-07T04:59:09;11.4;;;6.4;;
68375;SDS011;55318;52.068;5.188;2023-05-07T05:00:46;9.31;;;6.7;;
68375;SDS011;55318;52.068;5.188;2023-05-07T05:02:22;10.8;;;7.4;;
68375;SDS011;55318;52.068;5.188;2023-05-07T05:05:34;11.2;;;6.8;;
68375;SDS011;55318;52.068;5.188;2023-05-07T05:07:10;12.4;;;7.1;;
68375;SDS011;55318;52.068;5.188;2023-05-07T05:08:46;11.1;;;7.0;;
68375;SDS011;55318;52.068;5.188;2023-05-07T05:10:22;11.1;;;7.0;;
68375;SDS011;55318;52.068;5.188;2023-05-07T05:13:35;16.4;;;6.7;;
68375;SDS011;55318;52.068;5.188;2023-05-07T05:15:11;9.0;;;6.3;;
68375;SDS011;55318;52.068;5.188;2023-05-07T05:16:48;10.9;;;7.3;;
68375;SDS011;55318;52.068;5.188;2023-05-07T05:20:00;10.3;;;6.9;;
68375;SDS011;55318;52.068;5.188;2023-05-07T05:21:36;12.4;;;7.0;;
68375;SDS011;55318;52.068;5.188;2023-05-07T05:23:12;13.6;;;7.6;;
68375;SDS011;55318;52.068;5.188;2023-05-07T05:26:25;10.21;;;6.3;;
68375;SDS011;55318;52.068;5.188;2023-05-07T05:28:01;12.6;;;6.8;;
68375;SDS011;55318;52.068;5.188;2023-05-07T05:29:37;10.5;;;6.9;;
68375;SDS011;55318;52.068;5.188;2023-05-07T05:32:49;11.6;;;6.8;;
68375;SDS011;55318;52.068;5.188;2023-05-07T05:34:25;11.1;;;6.2;;
68375;SDS011;55318;52.068;5.188;2023-05-07T05:36:02;10.6;;;6.6;;
68375;SDS011;55318;52.068;5.188;2023-05-07T05:37:39;10.7;;;7.0;;
68375;SDS011;55318;52.068;5.188;2023-05-07T05:40:53;11.6;;;6.7;;
68375;SDS011;55318;52.068;5.188;2023-05-07T05:42:29;10.8;;;6.9;;
68375;SDS011;55318;52.068;5.188;2023-05-07T05:44:06;10.7;;;7.0;;
68375;SDS011;55318;52.068;5.188;2023-05-07T05:47:18;10.5;;;6.8;;
68375;SDS011;55318;52.068;5.188;2023-05-07T05:48:54;11.6;;;7.0;;
68375;SDS011;55318;52.068;5.188;2023-05-07T05:50:30;14.1;;;8.0;;
68375;SDS011;55318;52.068;5.188;2023-05-07T05:53:42;9.71;;;6.7;;
68375;SDS011;55318;52.068;5.188;2023-05-07T05:55:19;11.5;;;7.3;;
68375;SDS011;55318;52.068;5.188;2023-05-07T05:56:56;10.7;;;7.2;;
68375;SDS011;55318;52.068;5.188;2023-05-07T05:58:33;10.3;;;6.9;;
68375;SDS011;55318;52.068;5.188;2023-05-07T06:01:46;12.9;;;7.5;;
68375;SDS011;55318;52.068;5.188;2023-05-07T06:03:22;12.3;;;6.8;;
68375;SDS011;55318;52.068;5.188;2023-05-07T06:04:58;11.0;;;6.7;;
68375;SDS011;55318;52.068;5.188;2023-05-07T06:08:11;10.0;;;6.4;;
68375;SDS011;55318;52.068;5.188;2023-05-07T06:09:46;9.81;;;6.0;;
68375;SDS011;55318;52.068;5.188;2023-05-07T06:11:23;11.1;;;6.6;;
68375;SDS011;55318;52.068;5.188;2023-05-07T06:14:35;11.1;;;6.9;;
68375;SDS011;55318;52.068;5.188;2023-05-07T06:16:11;8.4;;;6.6;;
68375;SDS011;55318;52.068;5.188;2023-05-07T06:17:48;11.1;;;7.2;;
68375;SDS011;55318;52.068;5.188;2023-05-07T06:19:25;11.5;;;6.4;;
68375;SDS011;55318;52.068;5.188;2023-05-07T06:22:38;11.1;;;6.5;;
68375;SDS011;55318;52.068;5.188;2023-05-07T06:24:14;11.5;;;6.4;;
68375;SDS011;55318;52.068;5.188;2023-05-07T06:25:50;10.9;;;6.1;;
68375;SDS011;55318;52.068;5.188;2023-05-07T06:29:04;9.1;;;6.0;;
68375;SDS011;55318;52.068;5.188;2023-05-07T06:30:40;11.4;;;6.7;;
68375;SDS011;55318;52.068;5.188;2023-05-07T06:32:17;9.1;;;5.7;;
68375;SDS011;55318;52.068;5.188;2023-05-07T06:35:30;9.81;;;6.4;;
68375;SDS011;55318;52.068;5.188;2023-05-07T06:37:07;9.6;;;5.9;;
68375;SDS011;55318;52.068;5.188;2023-05-07T06:38:43;9.6;;;5.9;;
68375;SDS011;55318;52.068;5.188;2023-05-07T06:40:19;9.0;;;5.9;;
68375;SDS011;55318;52.068;5.188;2023-05-07T06:43:32;9.0;;;5.9;;
68375;SDS011;55318;52.068;5.188;2023-05-07T06:45:09;11.2;;;6.6;;
68375;SDS011;55318;52.068;5.188;2023-05-07T06:46:45;8.71;;;6.0;;
68375;SDS011;55318;52.068;5.188;2023-05-07T06:49:58;11.4;;;6.1;;
68375;SDS011;55318;52.068;5.188;2023-05-07T06:51:34;11.6;;;6.0;;
68375;SDS011;55318;52.068;5.188;2023-05-07T06:53:10;11.4;;;6.5;;
68375;SDS011;55318;52.068;5.188;2023-05-07T06:56:22;10.7;;;6.1;;
68375;SDS011;55318;52.068;5.188;2023-05-07T06:57:58;9.4;;;6.4;;
68375;SDS011;55318;52.068;5.188;2023-05-07T06:59:35;9.31;;;6.5;;
68375;SDS011;55318;52.068;5.188;2023-05-07T07:02:48;9.6;;;6.5;;
68375;SDS011;55318;52.068;5.188;2023-05-07T07:04:23;10.7;;;6.4;;
68375;SDS011;55318;52.068;5.188;2023-05-07T07:06:00;9.6;;;6.4;;
68375;SDS011;55318;52.068;5.188;2023-05-07T07:07:36;9.5;;;6.1;;
68375;SDS011;55318;52.068;5.188;2023-05-07T07:10:48;10.4;;;6.6;;
68375;SDS011;55318;52.068;5.188;2023-05-07T07:12:25;8.71;;;6.0;;
68375;SDS011;55318;52.068;5.188;2023-05-07T07:14:01;9.31;;;5.5;;
68375;SDS011;55318;52.068;5.188;2023-05-07T07:17:13;9.9;;;6.3;;
68375;SDS011;55318;52.068;5.188;2023-05-07T07:18:50;10.8;;;6.5;;
68375;SDS011;55318;52.068;5.188;2023-05-07T07:20:27;12.1;;;6.1;;
68375;SDS011;55318;52.068;5.188;2023-05-07T07:23:39;8.9;;;6.1;;
68375;SDS011;55318;52.068;5.188;2023-05-07T07:25:15;9.6;;;6.1;;
68375;SDS011;55318;52.068;5.188;2023-05-07T07:26:52;9.81;;;6.5;;
68375;SDS011;55318;52.068;5.188;2023-05-07T07:28:28;11.4;;;6.2;;
68375;SDS011;55318;52.068;5.188;2023-05-07T07:31:43;11.2;;;6.1;;
68375;SDS011;55318;52.068;5.188;2023-05-07T07:33:19;11.5;;;5.9;;
68375;SDS011;55318;52.068;5.188;2023-05-07T07:34:55;9.9;;;6.6;;
68375;SDS011;55318;52.068;5.188;2023-05-07T07:38:07;15.3;;;6.3;;
68375;SDS011;55318;52.068;5.188;2023-05-07T07:39:43;8.6;;;5.8;;
68375;SDS011;55318;52.068;5.188;2023-05-07T07:41:20;9.6;;;6.5;;
68375;SDS011;55318;52.068;5.188;2023-05-07T07:44:33;9.71;;;6.2;;
68375;SDS011;55318;52.068;5.188;2023-05-07T07:46:10;10.6;;;6.3;;
68375;SDS011;55318;52.068;5.188;2023-05-07T07:47:48;12.4;;;6.1;;
68375;SDS011;55318;52.068;5.188;2023-05-07T07:49:24;11.1;;;5.7;;
68375;SDS011;55318;52.068;5.188;2023-05-07T07:52:37;8.71;;;5.4;;
68375;SDS011;55318;52.068;5.188;2023-05-07T07:54:14;8.1;;;5.2;;
68375;SDS011;55318;52.068;5.188;2023-05-07T07:55:50;9.6;;;5.9;;
68375;SDS011;55318;52.068;5.188;2023-05-07T07:59:03;9.4;;;5.5;;
68375;SDS011;55318;52.068;5.188;2023-05-07T08:00:39;10.5;;;6.0;;
68375;SDS011;55318;52.068;5.188;2023-05-07T08:02:15;7.6;;;5.0;;
68375;SDS011;55318;52.068;5.188;2023-05-07T08:05:29;10.1;;;5.2;;
68375;SDS011;55318;52.068;5.188;2023-05-07T08:07:06;12.1;;;6.0;;
68375;SDS011;55318;52.068;5.188;2023-05-07T08:08:42;8.81;;;5.5;;
68375;SDS011;55318;52.068;5.188;2023-05-07T08:10:19;10.1;;;6.0;;
68375;SDS011;55318;52.068;5.188;2023-05-07T08:13:33;8.2;;;4.91;;
68375;SDS011;55318;52.068;5.188;2023-05-07T08:15:10;11.3;;;6.2;;
68375;SDS011;55318;52.068;5.188;2023-05-07T08:16:46;6.8;;;4.7;;
68375;SDS011;55318;52.068;5.188;2023-05-07T08:20:01;7.7;;;5.0;;
68375;SDS011;55318;52.068;5.188;2023-05-07T08:21:38;10.6;;;5.9;;
68375;SDS011;55318;52.068;5.188;2023-05-07T08:23:15;12.4;;;6.7;;
68375;SDS011;55318;52.068;5.188;2023-05-07T08:26:28;8.6;;;5.4;;
68375;SDS011;55318;52.068;5.188;2023-05-07T08:28:04;10.3;;;6.1;;
68375;SDS011;55318;52.068;5.188;2023-05-07T08:29:41;8.1;;;5.3;;
68375;SDS011;55318;52.068;5.188;2023-05-07T08:31:17;9.1;;;5.5;;
68375;SDS011;55318;52.068;5.188;2023-05-07T08:34:29;8.5;;;5.5;;
68375;SDS011;55318;52.068;5.188;2023-05-07T08:36:05;10.8;;;5.5;;
68375;SDS011;55318;52.068;5.188;2023-05-07T08:37:41;7.5;;;5.3;;
68375;SDS011;55318;52.068;5.188;2023-05-07T08:40:55;9.1;;;5.11;;
68375;SDS011;55318;52.068;5.188;2023-05-07T08:42:32;13.9;;;5.9;;
68375;SDS011;55318;52.068;5.188;2023-05-07T08:44:12;9.5;;;6.0;;
68375;SDS011;55318;52.068;5.188;2023-05-07T08:45:49;7.3;;;5.7;;
68375;SDS011;55318;52.068;5.188;2023-05-07T08:49:15;8.81;;;5.11;;
68375;SDS011;55318;52.068;5.188;2023-05-07T08:50:52;9.6;;;5.8;;
68375;SDS011;55318;52.068;5.188;2023-05-07T08:52:29;8.1;;;5.5;;
68375;SDS011;55318;52.068;5.188;2023-05-07T08:55:43;8.81;;;5.2;;
68375;SDS011;55318;52.068;5.188;2023-05-07T08:57:21;12.6;;;6.3;;
68375;SDS011;55318;52.068;5.188;2023-05-07T08:58:57;8.5;;;5.5;;
68375;SDS011;55318;52.068;5.188;2023-05-07T09:00:35;8.0;;;5.5;;
68375;SDS011;55318;52.068;5.188;2023-05-07T09:03:49;9.21;;;6.1;;
68375;SDS011;55318;52.068;5.188;2023-05-07T09:05:28;11.6;;;6.3;;
68375;SDS011;55318;52.068;5.188;2023-05-07T09:07:04;8.71;;;5.8;;
68375;SDS011;55318;52.068;5.188;2023-05-07T09:10:25;11.0;;;5.8;;
68375;SDS011;55318;52.068;5.188;2023-05-07T09:12:02;9.5;;;6.0;;
68375;SDS011;55318;52.068;5.188;2023-05-07T09:13:39;9.5;;;5.6;;
68375;SDS011;55318;52.068;5.188;2023-05-07T09:15:15;10.7;;;6.3;;
68375;SDS011;55318;52.068;5.188;2023-05-07T09:18:28;6.6;;;4.61;;
68375;SDS011;55318;52.068;5.188;2023-05-07T09:20:05;7.5;;;5.3;;
68375;SDS011;55318;52.068;5.188;2023-05-07T09:21:42;8.31;;;5.4;;
68375;SDS011;55318;52.068;5.188;2023-05-07T09:24:57;8.1;;;4.8;;
68375;SDS011;55318;52.068;5.188;2023-05-07T09:26:33;11.0;;;5.5;;
68375;SDS011;55318;52.068;5.188;2023-05-07T09:28:10;10.7;;;5.2;;
68375;SDS011;55318;52.068;5.188;2023-05-07T09:29:46;10.5;;;4.91;;
68375;SDS011;55318;52.068;5.188;2023-05-07T09:33:00;7.9;;;4.8;;
68375;SDS011;55318;52.068;5.188;2023-05-07T09:34:40;6.1;;;4.41;;
68375;SDS011;55318;52.068;5.188;2023-05-07T09:36:17;8.31;;;4.61;;
68375;SDS011;55318;52.068;5.188;2023-05-07T09:39:38;6.5;;;4.41;;
68375;SDS011;55318;52.068;5.188;2023-05-07T09:41:19;9.0;;;4.0;;
68375;SDS011;55318;52.068;5.188;2023-05-07T09:42:55;7.7;;;4.2;;
68375;SDS011;55318;52.068;5.188;2023-05-07T09:44:32;4.7;;;3.3;;
68375;SDS011;55318;52.068;5.188;2023-05-07T09:47:50;5.6;;;3.8;;
68375;SDS011;55318;52.068;5.188;2023-05-07T09:49:33;7.1;;;3.5;;
68375;SDS011;55318;52.068;5.188;2023-05-07T09:51:14;5.5;;;3.2;;
68375;SDS011;55318;52.068;5.188;2023-05-07T09:53:05;4.7;;;3.0;;
68375;SDS011;55318;52.068;5.188;2023-05-07T09:56:22;4.7;;;3.0;;
68375;SDS011;55318;52.068;5.188;2023-05-07T09:58:00;5.2;;;3.4;;
68375;SDS011;55318;52.068;5.188;2023-05-07T09:59:40;4.7;;;3.0;;
68375;SDS011;55318;52.068;5.188;2023-05-07T10:01:19;4.8;;;3.1;;
68375;SDS011;55318;52.068;5.188;2023-05-07T10:04:35;4.41;;;2.7;;
68375;SDS011;55318;52.068;5.188;2023-05-07T10:06:12;8.2;;;3.5;;
68375;SDS011;55318;52.068;5.188;2023-05-07T10:07:50;4.8;;;3.1;;
68375;SDS011;55318;52.068;5.188;2023-05-07T10:11:06;4.3;;;3.0;;
68375;SDS011;55318;52.068;5.188;2023-05-07T10:12:42;6.1;;;2.4;;
68375;SDS011;55318;52.068;5.188;2023-05-07T10:14:19;4.5;;;2.8;;
68375;SDS011;55318;52.068;5.188;2023-05-07T10:15:57;3.8;;;2.7;;
68375;SDS011;55318;52.068;5.188;2023-05-07T10:19:11;3.8;;;2.5;;
68375;SDS011;55318;52.068;5.188;2023-05-07T10:20:48;3.5;;;2.31;;
68375;SDS011;55318;52.068;5.188;2023-05-07T10:22:28;2.9;;;2.4;;
68375;SDS011;55318;52.068;5.188;2023-05-07T10:24:15;3.5;;;2.1;;
68375;SDS011;55318;52.068;5.188;2023-05-07T10:27:33;4.0;;;2.4;;
68375;SDS011;55318;52.068;5.188;2023-05-07T10:29:12;4.2;;;2.4;;
68375;SDS011;55318;52.068;5.188;2023-05-07T10:31:05;2.8;;;2.1;;
68375;SDS011;55318;52.068;5.188;2023-05-07T10:33:01;3.3;;;2.7;;
68375;SDS011;55318;52.068;5.188;2023-05-07T10:34:41;4.91;;;3.0;;
68375;SDS011;55318;52.068;5.188;2023-05-07T10:37:59;7.5;;;3.5;;
68375;SDS011;55318;52.068;5.188;2023-05-07T10:39:35;5.9;;;2.6;;
68375;SDS011;55318;52.068;5.188;2023-05-07T10:44:30;4.0;;;3.4;;
68375;SDS011;55318;52.068;5.188;2023-05-07T10:46:10;4.41;;;3.4;;
68375;SDS011;55318;52.068;5.188;2023-05-07T10:48:05;4.2;;;3.2;;
68375;SDS011;55318;52.068;5.188;2023-05-07T10:50:51;4.1;;;2.9;;
68375;SDS011;55318;52.068;5.188;2023-05-07T10:53:26;5.4;;;3.7;;
68375;SDS011;55318;52.068;5.188;2023-05-07T10:55:32;6.5;;;3.4;;
68375;SDS011;55318;52.068;5.188;2023-05-07T10:57:41;5.11;;;3.1;;
68375;SDS011;55318;52.068;5.188;2023-05-07T10:59:30;5.3;;;3.7;;
68375;SDS011;55318;52.068;5.188;2023-05-07T11:01:10;7.1;;;4.0;;
68375;SDS011;55318;52.068;5.188;2023-05-07T11:03:18;4.41;;;3.3;;
68375;SDS011;55318;52.068;5.188;2023-05-07T11:05:18;7.3;;;3.4;;
68375;SDS011;55318;52.068;5.188;2023-05-07T11:07:23;5.7;;;3.3;;
68375;SDS011;55318;52.068;5.188;2023-05-07T11:09:05;4.91;;;3.7;;
68375;SDS011;55318;52.068;5.188;2023-05-07T11:10:57;6.0;;;4.1;;
68375;SDS011;55318;52.068;5.188;2023-05-07T11:13:07;6.6;;;3.6;;
68375;SDS011;55318;52.068;5.188;2023-05-07T11:14:44;6.0;;;3.9;;
68375;SDS011;55318;52.068;5.188;2023-05-07T11:18:00;5.2;;;4.1;;
68375;SDS011;55318;52.068;5.188;2023-05-07T11:19:52;6.1;;;3.4;;
68375;SDS011;55318;52.068;5.188;2023-05-07T11:21:32;6.3;;;3.3;;
68375;SDS011;55318;52.068;5.188;2023-05-07T11:23:39;3.1;;;2.6;;
68375;SDS011;55318;52.068;5.188;2023-05-07T11:25:34;6.2;;;4.0;;
68375;SDS011;55318;52.068;5.188;2023-05-07T11:27:12;5.4;;;4.0;;
68375;SDS011;55318;52.068;5.188;2023-05-07T11:30:27;7.9;;;3.4;;
68375;SDS011;55318;52.068;5.188;2023-05-07T11:32:04;5.4;;;3.6;;
68375;SDS011;55318;52.068;5.188;2023-05-07T11:33:41;5.0;;;3.5;;
68375;SDS011;55318;52.068;5.188;2023-05-07T11:35:22;6.6;;;3.9;;
68375;SDS011;55318;52.068;5.188;2023-05-07T11:38:36;5.7;;;4.0;;
68375;SDS011;55318;52.068;5.188;2023-05-07T11:40:14;6.0;;;4.41;;
68375;SDS011;55318;52.068;5.188;2023-05-07T11:41:50;6.2;;;4.1;;
68375;SDS011;55318;52.068;5.188;2023-05-07T11:45:04;6.1;;;4.3;;
68375;SDS011;55318;52.068;5.188;2023-05-07T11:46:43;5.2;;;3.8;;
68375;SDS011;55318;52.068;5.188;2023-05-07T11:48:20;7.0;;;4.2;;
68375;SDS011;55318;52.068;5.188;2023-05-07T11:50:03;5.8;;;3.6;;
68375;SDS011;55318;52.068;5.188;2023-05-07T11:53:18;5.9;;;4.0;;
68375;SDS011;55318;52.068;5.188;2023-05-07T11:54:56;5.11;;;3.9;;
68375;SDS011;55318;52.068;5.188;2023-05-07T11:56:34;6.1;;;3.8;;
68375;SDS011;55318;52.068;5.188;2023-05-07T11:59:56;6.3;;;4.1;;
68375;SDS011;55318;52.068;5.188;2023-05-07T12:01:34;6.5;;;4.0;;
68375;SDS011;55318;52.068;5.188;2023-05-07T12:03:11;6.7;;;3.9;;
68375;SDS011;55318;52.068;5.188;2023-05-07T12:04:47;5.5;;;3.7;;
68375;SDS011;55318;52.068;5.188;2023-05-07T12:08:00;5.8;;;4.0;;
68375;SDS011;55318;52.068;5.188;2023-05-07T12:09:36;6.1;;;4.0;;
68375;SDS011;55318;52.068;5.188;2023-05-07T12:11:13;7.5;;;4.0;;
68375;SDS011;55318;52.068;5.188;2023-05-07T12:14:28;6.6;;;4.0;;
68375;SDS011;55318;52.068;5.188;2023-05-07T12:16:05;5.3;;;4.0;;
68375;SDS011;55318;52.068;5.188;2023-05-07T12:17:42;8.9;;;4.2;;
68375;SDS011;55318;52.068;5.188;2023-05-07T12:19:19;7.0;;;4.8;;
68375;SDS011;55318;52.068;5.188;2023-05-07T12:22:34;6.9;;;4.5;;
68375;SDS011;55318;52.068;5.188;2023-05-07T12:24:11;5.8;;;3.8;;
68375;SDS011;55318;52.068;5.188;2023-05-07T12:25:49;9.21;;;4.0;;
68375;SDS011;55318;52.068;5.188;2023-05-07T12:29:03;5.4;;;3.2;;
68375;SDS011;55318;52.068;5.188;2023-05-07T12:30:40;3.4;;;2.8;;
68375;SDS011;55318;52.068;5.188;2023-05-07T12:32:19;5.11;;;3.0;;
68375;SDS011;55318;52.068;5.188;2023-05-07T12:33:57;4.2;;;2.6;;
68375;SDS011;55318;52.068;5.188;2023-05-07T12:37:16;4.2;;;2.6;;
68375;SDS011;55318;52.068;5.188;2023-05-07T12:38:53;3.7;;;2.6;;
68375;SDS011;55318;52.068;5.188;2023-05-07T12:40:37;5.7;;;3.9;;
68375;SDS011;55318;52.068;5.188;2023-05-07T12:42:15;4.3;;;3.4;;
68375;SDS011;55318;52.068;5.188;2023-05-07T12:45:36;5.2;;;3.4;;
68375;SDS011;55318;52.068;5.188;2023-05-07T12:47:14;5.7;;;3.3;;
68375;SDS011;55318;52.068;5.188;2023-05-07T12:48:50;5.8;;;2.9;;
68375;SDS011;55318;52.068;5.188;2023-05-07T12:52:07;4.61;;;2.4;;
68375;SDS011;55318;52.068;5.188;2023-05-07T12:53:44;8.2;;;3.0;;
68375;SDS011;55318;52.068;5.188;2023-05-07T12:55:21;9.81;;;4.1;;
68375;SDS011;55318;52.068;5.188;2023-05-07T12:57:00;3.3;;;2.31;;
68375;SDS011;55318;52.068;5.188;2023-05-07T13:00:16;6.1;;;2.5;;
68375;SDS011;55318;52.068;5.188;2023-05-07T13:01:53;5.2;;;3.5;;